Time;durP1;ratioP1;P1;durP2;ratioP2;P2;SDS_P1;SDS_P2;PMS_P1;PMS_P2;Temp;Humidity;BMP_temperature;BMP_pressure;BME280_temperature;BME280_humidity;BME280_pressure;Samples;Min_cycle;Max_cycle;Signal;HPM_P1;HPM_P2
2023/12/23 00:01:16;;;;;;;0.50;0.50;;;7.30;99.90;;;;;;5060314;28;20205;-85
2023/12/23 00:03:44;;;;;;;0.80;0.80;;;7.30;99.90;;;;;;5060298;28;20218;-85
2023/12/23 00:06:11;;;;;;;0.68;0.50;;;7.20;99.90;;;;;;5064687;28;20198;-85
2023/12/23 00:08:38;;;;;;;0.55;0.55;;;7.20;99.90;;;;;;5063357;28;20201;-85
2023/12/23 00:11:05;;;;;;;1.40;0.80;;;7.30;99.90;;;;;;5060479;28;20220;-84
2023/12/23 00:13:32;;;;;;;0.80;0.80;;;7.30;99.90;;;;;;5060418;28;20201;-85
2023/12/23 00:15:59;;;;;;;0.57;0.57;;;7.20;99.90;;;;;;5056888;28;20212;-85
2023/12/23 00:18:26;;;;;;;0.52;0.40;;;7.20;99.90;;;;;;5057308;28;20623;-85
2023/12/23 00:20:54;;;;;;;0.80;0.70;;;7.20;99.90;;;;;;5058025;28;20205;-85
2023/12/23 00:23:21;;;;;;;0.73;0.70;;;7.10;99.90;;;;;;5055471;28;20221;-85
2023/12/23 00:25:48;;;;;;;0.50;0.50;;;7.10;99.90;;;;;;5057182;28;20207;-85
2023/12/23 00:28:14;;;;;;;0.68;0.68;;;7.10;99.90;;;;;;5057557;28;20205;-85
2023/12/23 00:30:41;;;;;;;0.40;0.40;;;7.00;99.90;;;;;;5060253;28;20205;-85
2023/12/23 00:33:08;;;;;;;0.50;0.50;;;7.00;99.90;;;;;;5059476;28;20198;-85
2023/12/23 00:35:35;;;;;;;0.50;0.50;;;7.00;99.90;;;;;;5060532;28;20189;-85
2023/12/23 00:38:04;;;;;;;1.23;0.63;;;7.10;99.90;;;;;;5055231;28;20205;-85
2023/12/23 00:40:30;;;;;;;0.50;0.50;;;7.10;99.90;;;;;;5060150;28;20208;-85
2023/12/23 00:42:57;;;;;;;2.03;0.70;;;7.20;99.90;;;;;;5058633;28;20224;-85
2023/12/23 00:45:24;;;;;;;1.58;0.90;;;7.20;99.90;;;;;;5059264;28;20205;-83
2023/12/23 00:47:51;;;;;;;1.37;0.87;;;7.20;99.90;;;;;;5057910;28;20201;-84
2023/12/23 00:50:18;;;;;;;0.73;0.50;;;7.30;99.90;;;;;;5055168;28;20197;-84
2023/12/23 00:52:44;;;;;;;0.57;0.57;;;7.20;99.90;;;;;;5056557;28;20194;-84
2023/12/23 00:55:12;;;;;;;0.70;0.50;;;7.20;99.90;;;;;;5057365;28;20200;-84
2023/12/23 00:57:39;;;;;;;1.17;0.70;;;7.10;99.90;;;;;;5054448;28;20228;-84
2023/12/23 01:00:07;;;;;;;1.08;0.60;;;7.10;99.90;;;;;;5062521;28;20197;-84
2023/12/23 01:02:34;;;;;;;0.93;0.73;;;7.10;99.90;;;;;;5055333;28;20190;-84
2023/12/23 01:05:01;;;;;;;1.40;0.60;;;7.10;99.90;;;;;;5053964;28;20223;-85
2023/12/23 01:07:28;;;;;;;0.80;0.80;;;7.20;99.90;;;;;;5057714;28;20220;-85
2023/12/23 01:09:57;;;;;;;0.75;0.50;;;7.10;99.90;;;;;;5056916;28;20198;-84
2023/12/23 01:12:25;;;;;;;1.03;0.90;;;7.10;99.90;;;;;;5063413;28;20205;-84
2023/12/23 01:14:52;;;;;;;0.60;0.60;;;7.20;99.90;;;;;;5054545;28;20198;-85
2023/12/23 01:17:19;;;;;;;0.75;0.70;;;7.20;99.90;;;;;;5063988;28;20197;-85
2023/12/23 01:19:46;;;;;;;0.50;0.50;;;7.30;99.90;;;;;;5058269;28;20194;-85
2023/12/23 01:22:12;;;;;;;0.60;0.60;;;7.20;99.90;;;;;;5053829;28;20249;-85
2023/12/23 01:24:39;;;;;;;1.30;0.70;;;7.30;99.90;;;;;;5058313;28;20213;-85
2023/12/23 01:27:06;;;;;;;1.17;0.70;;;7.30;99.90;;;;;;5059475;28;20664;-85
2023/12/23 01:29:34;;;;;;;0.82;0.50;;;7.30;99.90;;;;;;5056093;28;20202;-85
2023/12/23 01:32:01;;;;;;;1.42;0.70;;;7.30;99.90;;;;;;5054334;28;20652;-85
2023/12/23 01:34:28;;;;;;;1.10;0.60;;;7.30;99.90;;;;;;5054095;28;20197;-85
2023/12/23 01:36:54;;;;;;;0.80;0.80;;;7.30;99.90;;;;;;5063974;28;20211;-84
2023/12/23 01:39:21;;;;;;;0.73;0.60;;;7.40;99.90;;;;;;5056649;28;20205;-84
2023/12/23 01:41:48;;;;;;;2.42;0.55;;;7.40;99.90;;;;;;5058587;28;20202;-85
2023/12/23 01:44:15;;;;;;;0.40;0.40;;;7.40;99.90;;;;;;5061733;28;20209;-84
2023/12/23 01:46:43;;;;;;;2.72;0.50;;;7.40;99.50;;;;;;5052097;28;20201;-84
2023/12/23 01:49:10;;;;;;;0.50;0.50;;;7.40;99.50;;;;;;5054592;28;20206;-87
2023/12/23 01:51:37;;;;;;;2.13;0.70;;;7.40;99.70;;;;;;5058267;28;20189;-84
2023/12/23 01:54:07;;;;;;;1.08;0.50;;;7.40;99.70;;;;;;5052659;28;20193;-84
2023/12/23 01:56:34;;;;;;;1.35;0.50;;;7.40;99.80;;;;;;5058116;28;20201;-84
2023/12/23 01:59:02;;;;;;;1.10;0.50;;;7.30;99.90;;;;;;5056368;28;20560;-84
2023/12/23 02:01:32;;;;;;;0.50;0.50;;;7.30;99.90;;;;;;5057867;28;20292;-84
2023/12/23 02:04:00;;;;;;;1.10;0.63;;;7.20;99.90;;;;;;5058987;28;20225;-84
2023/12/23 02:06:27;;;;;;;0.50;0.50;;;7.10;99.90;;;;;;5058305;28;20645;-85
2023/12/23 02:08:54;;;;;;;0.70;0.70;;;7.00;99.90;;;;;;5051253;28;20280;-85
2023/12/23 02:11:29;;;;;;;1.80;0.60;;;6.90;99.90;;;;;;5060585;28;20194;-84
2023/12/23 02:14:02;;;;;;;0.60;0.60;;;6.90;99.90;;;;;;5056319;28;20208;-84
2023/12/23 02:16:29;;;;;;;0.50;0.50;;;6.80;99.90;;;;;;5062781;28;20205;-84
2023/12/23 02:18:56;;;;;;;0.50;0.50;;;6.80;99.90;;;;;;5066529;28;20198;-84
2023/12/23 02:21:24;;;;;;;0.40;0.40;;;6.90;99.90;;;;;;5056922;28;20567;-84
2023/12/23 02:23:51;;;;;;;0.60;0.60;;;6.90;99.90;;;;;;5057770;28;20213;-84
2023/12/23 02:26:20;;;;;;;0.60;0.57;;;6.90;99.90;;;;;;5062896;28;20205;-84
2023/12/23 02:28:51;;;;;;;1.80;0.60;;;6.80;99.90;;;;;;5061971;28;20204;-84
2023/12/23 02:31:19;;;;;;;0.60;0.43;;;6.80;99.90;;;;;;5068169;28;20857;-84
2023/12/23 02:33:47;;;;;;;0.60;0.40;;;6.80;99.90;;;;;;5059788;28;20197;-84
2023/12/23 02:36:14;;;;;;;0.63;0.63;;;6.80;99.90;;;;;;5064619;28;20193;-84
2023/12/23 02:38:42;;;;;;;1.17;0.60;;;6.70;99.90;;;;;;5062113;28;20210;-84
2023/12/23 02:41:09;;;;;;;0.90;0.77;;;6.70;99.90;;;;;;5055556;28;20201;-84
2023/12/23 02:43:36;;;;;;;0.70;0.70;;;6.70;99.90;;;;;;5059344;28;20212;-85
2023/12/23 02:46:02;;;;;;;0.70;0.70;;;6.60;99.90;;;;;;5058068;28;20194;-84
2023/12/23 02:48:29;;;;;;;0.50;0.50;;;6.70;99.90;;;;;;5065057;28;20197;-83
2023/12/23 02:50:56;;;;;;;0.50;0.50;;;6.70;99.90;;;;;;5060277;28;20194;-84
2023/12/23 02:53:23;;;;;;;0.50;0.50;;;6.60;99.90;;;;;;5067320;28;20209;-83
2023/12/23 02:55:51;;;;;;;0.60;0.60;;;6.70;99.90;;;;;;5064346;28;20198;-84
2023/12/23 02:58:18;;;;;;;1.07;0.70;;;6.60;99.90;;;;;;5059545;28;20550;-83
2023/12/23 03:00:45;;;;;;;1.27;0.60;;;6.60;99.90;;;;;;5059629;28;20202;-83
2023/12/23 03:03:12;;;;;;;0.50;0.50;;;6.60;99.90;;;;;;5057885;28;20194;-83
2023/12/23 03:05:39;;;;;;;0.70;0.60;;;6.60;99.90;;;;;;5056902;28;20216;-83
2023/12/23 03:08:06;;;;;;;0.63;0.50;;;6.60;99.90;;;;;;5061044;28;20198;-83
2023/12/23 03:10:33;;;;;;;0.70;0.70;;;6.50;99.90;;;;;;5062066;28;20206;-83
2023/12/23 03:13:01;;;;;;;0.40;0.40;;;6.50;99.90;;;;;;5062214;28;20214;-83
2023/12/23 03:15:28;;;;;;;0.60;0.60;;;6.60;99.90;;;;;;5060123;28;20649;-83
2023/12/23 03:17:54;;;;;;;0.40;0.40;;;6.50;99.90;;;;;;5060956;28;20209;-83
2023/12/23 03:20:23;;;;;;;0.73;0.70;;;6.50;99.90;;;;;;5059443;28;20198;-83
2023/12/23 03:22:49;;;;;;;0.50;0.50;;;6.50;99.90;;;;;;5059855;28;20190;-82
2023/12/23 03:25:16;;;;;;;0.63;0.63;;;6.50;99.90;;;;;;5061094;28;20221;-85
2023/12/23 03:27:43;;;;;;;0.53;0.53;;;6.50;99.90;;;;;;5059988;28;20201;-83
2023/12/23 03:30:13;;;;;;;2.30;0.60;;;6.40;99.90;;;;;;5058331;28;20725;-83
2023/12/23 03:32:40;;;;;;;1.03;0.40;;;6.40;99.90;;;;;;5057098;28;20190;-82
2023/12/23 03:35:07;;;;;;;0.57;0.50;;;6.50;99.90;;;;;;5056606;28;20193;-83
2023/12/23 03:37:34;;;;;;;1.30;0.40;;;6.40;99.90;;;;;;5058446;28;20209;-83
2023/12/23 03:40:01;;;;;;;0.50;0.50;;;6.50;99.90;;;;;;5059647;28;20198;-83
2023/12/23 03:42:27;;;;;;;0.60;0.60;;;6.40;99.90;;;;;;5063780;28;20212;-83
2023/12/23 03:44:54;;;;;;;0.80;0.80;;;6.40;99.90;;;;;;5063955;28;20233;-84
2023/12/23 03:47:22;;;;;;;0.47;0.47;;;6.50;99.90;;;;;;5064463;28;20193;-84
2023/12/23 03:49:49;;;;;;;0.50;0.50;;;6.50;99.90;;;;;;5061147;28;21242;-83
2023/12/23 03:52:16;;;;;;;0.63;0.60;;;6.50;99.90;;;;;;5063163;28;20200;-83
2023/12/23 03:54:43;;;;;;;1.87;0.80;;;6.50;99.90;;;;;;5058972;28;20197;-83
2023/12/23 03:57:09;;;;;;;0.40;0.40;;;6.50;99.90;;;;;;5059038;28;20198;-83
2023/12/23 03:59:36;;;;;;;0.87;0.77;;;6.50;99.90;;;;;;5058531;28;20197;-85
2023/12/23 04:02:03;;;;;;;0.47;0.47;;;6.60;99.90;;;;;;5057221;28;20205;-84
2023/12/23 04:04:32;;;;;;;0.60;0.60;;;6.50;99.90;;;;;;5053814;28;20608;-85
2023/12/23 04:06:59;;;;;;;1.93;0.60;;;6.50;99.90;;;;;;5053718;28;20202;-84
2023/12/23 04:09:26;;;;;;;0.73;0.50;;;6.50;99.90;;;;;;5057146;28;20923;-84
2023/12/23 04:11:53;;;;;;;0.40;0.40;;;6.50;99.90;;;;;;5059790;28;20198;-85
2023/12/23 04:14:18;;;;;;;0.50;0.50;;;6.50;99.90;;;;;;5057508;28;20281;-86
2023/12/23 04:16:45;;;;;;;0.50;0.50;;;6.50;99.90;;;;;;5063014;28;20290;-85
2023/12/23 04:19:12;;;;;;;0.33;0.33;;;6.50;99.90;;;;;;5056375;28;20210;-84
2023/12/23 04:21:40;;;;;;;0.40;0.40;;;6.50;99.90;;;;;;5068583;28;20201;-84
2023/12/23 04:24:08;;;;;;;0.47;0.47;;;6.50;99.90;;;;;;5062424;28;20237;-85
2023/12/23 04:26:35;;;;;;;0.50;0.50;;;6.50;99.90;;;;;;5059244;28;20302;-84
2023/12/23 04:29:02;;;;;;;0.43;0.43;;;6.50;99.90;;;;;;5055192;28;20464;-85
2023/12/23 04:31:29;;;;;;;0.70;0.60;;;6.50;99.90;;;;;;5061284;28;20193;-85
2023/12/23 04:33:55;;;;;;;0.50;0.50;;;6.50;99.90;;;;;;5059692;28;20209;-85
2023/12/23 04:36:23;;;;;;;0.60;0.60;;;6.50;99.90;;;;;;5058330;28;20203;-84
2023/12/23 04:38:51;;;;;;;0.40;0.40;;;6.50;99.90;;;;;;5057225;28;20202;-84
2023/12/23 04:41:18;;;;;;;0.80;0.63;;;6.50;99.90;;;;;;5053653;28;20193;-84
2023/12/23 04:43:44;;;;;;;0.50;0.50;;;6.40;99.90;;;;;;5056761;28;20563;-84
2023/12/23 04:46:11;;;;;;;0.50;0.50;;;6.40;99.90;;;;;;5055609;28;20204;-84
2023/12/23 04:48:38;;;;;;;1.87;0.40;;;6.40;99.90;;;;;;5056877;28;20202;-84
2023/12/23 04:51:05;;;;;;;0.50;0.50;;;6.50;99.90;;;;;;5063211;28;20197;-84
2023/12/23 04:53:32;;;;;;;0.93;0.53;;;6.40;99.90;;;;;;5056689;28;20197;-85
2023/12/23 04:56:01;;;;;;;0.57;0.40;;;6.30;99.90;;;;;;5062433;28;20197;-84
2023/12/23 04:58:28;;;;;;;0.37;0.37;;;6.30;99.90;;;;;;5058332;28;20213;-85
2023/12/23 05:00:54;;;;;;;0.43;0.43;;;6.30;99.90;;;;;;5058286;28;20194;-83
2023/12/23 05:03:21;;;;;;;0.73;0.57;;;6.30;99.90;;;;;;5054037;28;20304;-83
2023/12/23 05:05:48;;;;;;;0.40;0.40;;;6.30;99.90;;;;;;5052640;28;20218;-83
2023/12/23 05:08:16;;;;;;;0.57;0.57;;;6.30;99.90;;;;;;5054861;28;20202;-84
2023/12/23 05:10:43;;;;;;;0.40;0.40;;;6.30;99.90;;;;;;5058521;28;20201;-82
2023/12/23 05:13:11;;;;;;;0.40;0.40;;;6.30;99.90;;;;;;5063700;28;20193;-84
2023/12/23 05:15:38;;;;;;;0.67;0.47;;;6.30;99.90;;;;;;5058122;28;20263;-84
2023/12/23 05:18:06;;;;;;;0.80;0.40;;;6.30;99.90;;;;;;5064348;28;20232;-84
2023/12/23 05:20:33;;;;;;;0.73;0.50;;;6.30;99.90;;;;;;5062501;28;20193;-85
2023/12/23 05:23:00;;;;;;;0.40;0.40;;;6.30;99.90;;;;;;5055940;28;20198;-86
2023/12/23 05:25:26;;;;;;;0.63;0.40;;;6.20;99.90;;;;;;5059708;28;20669;-84
2023/12/23 05:27:53;;;;;;;0.50;0.50;;;6.20;99.90;;;;;;5060449;28;20210;-83
2023/12/23 05:30:21;;;;;;;0.87;0.67;;;6.10;99.90;;;;;;5057429;28;20198;-83
2023/12/23 05:32:48;;;;;;;0.43;0.43;;;6.20;99.90;;;;;;5059931;28;20209;-87
2023/12/23 05:35:15;;;;;;;0.63;0.50;;;6.10;99.90;;;;;;5055639;28;20205;-82
2023/12/23 05:37:42;;;;;;;0.40;0.40;;;6.20;99.90;;;;;;5052393;28;20202;-85
